Online Now
Guests 3
Members   0

24/7 FSX Server
IP: 71.135.74.145
@ KIAD until 2/21/20



Information and tools for flight simulation use only - NOT for real avaition

File Flight Plans Here

KIAD 182352Z 22005KT 10SM BKN070 OVC100 13/06 A3001 RMK AO2 SLP162 T01280061 10156 20128 53004KIAD 182336Z 1900/2006 21005KT P6SM OVC100 FM190300 29004KT P6SM OVC040 FM190500 32010G18KT P6SM OVC050 FM191200 33010G17KT P6SM OVC110 FM191300 33011G18KT P6SM SCT250
Aviation Digital Data Service (ADDS)



Other FSX servers